createdAt,value
2022-08-23T04:00:34.244Z,1002.89
2022-08-23T04:01:34.248Z,1002.87
2022-08-23T04:02:34.191Z,1002.81
2022-08-23T04:03:34.177Z,1002.86
2022-08-23T04:04:34.187Z,1002.88
2022-08-23T04:05:34.157Z,1002.92
2022-08-23T04:06:34.149Z,1002.93
2022-08-23T04:07:34.148Z,1002.95
2022-08-23T04:08:34.182Z,1002.99
2022-08-23T04:09:34.120Z,1003.01
2022-08-23T04:10:34.101Z,1003.02
2022-08-23T04:11:39.113Z,1003.02
2022-08-23T04:12:34.085Z,1003.04
2022-08-23T04:13:34.067Z,1003.02
2022-08-23T04:14:34.071Z,1003.11
2022-08-23T04:15:34.045Z,1003.12
2022-08-23T04:16:34.037Z,1003.08
2022-08-23T04:17:34.021Z,1003.12
2022-08-23T04:18:34.016Z,1003.07
2022-08-23T04:19:34.009Z,1003.06
2022-08-23T04:20:33.999Z,1003.03
2022-08-23T04:21:33.978Z,1003.07
2022-08-23T04:22:38.988Z,1002.96
2022-08-23T04:23:33.953Z,1003.10
2022-08-23T04:24:33.952Z,1003.04
2022-08-23T04:25:35.762Z,1003.07
2022-08-23T04:26:33.921Z,1003.10
2022-08-23T04:27:33.912Z,1003.08
2022-08-23T04:28:33.905Z,1003.09
2022-08-23T04:29:34.708Z,1003.10
2022-08-23T04:30:33.877Z,1003.11
2022-08-23T04:31:34.537Z,1003.06
2022-08-23T04:32:34.343Z,1003.17
2022-08-23T04:33:40.246Z,1003.17
2022-08-23T04:34:33.845Z,1003.21
2022-08-23T04:35:33.828Z,1003.18
2022-08-23T04:36:34.646Z,1003.21
2022-08-23T04:37:33.799Z,1003.20
2022-08-23T04:38:33.796Z,1003.22
2022-08-23T04:39:33.788Z,1003.20
2022-08-23T04:40:33.803Z,1003.18
2022-08-23T04:41:33.756Z,1003.28
2022-08-23T04:42:33.745Z,1003.21
2022-08-23T04:43:33.738Z,1003.26
2022-08-23T04:44:38.751Z,1003.19
2022-08-23T04:45:33.715Z,1003.28
2022-08-23T04:46:33.700Z,1003.27
2022-08-23T04:47:33.695Z,1003.24
2022-08-23T04:48:33.676Z,1003.28
2022-08-23T04:49:33.677Z,1003.27
2022-08-23T04:50:33.652Z,1003.25
2022-08-23T04:51:33.644Z,1003.31
2022-08-23T04:52:33.632Z,1003.35
2022-08-23T04:53:33.626Z,1003.26
2022-08-23T04:54:33.610Z,1003.27
2022-08-23T04:55:38.666Z,1003.42
2022-08-23T04:56:33.596Z,1003.33
2022-08-23T04:57:33.611Z,1003.35
2022-08-23T04:58:33.571Z,1003.36
2022-08-23T04:59:33.557Z,1003.43
2022-08-23T05:00:33.662Z,1003.48
2022-08-23T05:01:33.541Z,1003.46
2022-08-23T05:02:33.523Z,1003.47
2022-08-23T05:03:33.516Z,1003.51
2022-08-23T05:04:33.508Z,1003.52
2022-08-23T05:05:33.520Z,1003.50
2022-08-23T05:06:39.513Z,1003.52
2022-08-23T05:07:42.318Z,1003.56
2022-08-23T05:08:34.457Z,1003.59
2022-08-23T05:09:33.458Z,1003.53
2022-08-23T05:10:33.449Z,1003.62
2022-08-23T05:11:33.424Z,1003.64
2022-08-23T05:12:33.411Z,1003.54
2022-08-23T05:13:34.696Z,1003.59
2022-08-23T05:14:33.387Z,1003.69
2022-08-23T05:15:33.391Z,1003.71
2022-08-23T05:16:33.371Z,1003.67
2022-08-23T05:17:38.392Z,1003.69
2022-08-23T05:18:33.384Z,1003.65
2022-08-23T05:19:33.336Z,1003.65
2022-08-23T05:20:33.339Z,1003.67
2022-08-23T05:21:33.319Z,1003.66
2022-08-23T05:22:33.306Z,1003.69
2022-08-23T05:23:33.300Z,1003.65
2022-08-23T05:24:33.277Z,1003.69
2022-08-23T05:25:33.283Z,1003.62
2022-08-23T05:26:33.257Z,1003.67
2022-08-23T05:27:33.376Z,1003.69
2022-08-23T05:28:38.265Z,1003.73
2022-08-23T05:29:33.227Z,1003.77
2022-08-23T05:30:33.224Z,1003.75
2022-08-23T05:31:33.205Z,1003.80
2022-08-23T05:32:33.793Z,1003.83
2022-08-23T05:33:33.185Z,1003.82
2022-08-23T05:34:33.165Z,1003.80
2022-08-23T05:35:33.179Z,1003.79
2022-08-23T05:36:33.146Z,1003.78
2022-08-23T05:37:33.137Z,1003.83
2022-08-23T05:38:33.122Z,1003.82
2022-08-23T05:39:38.143Z,1003.86
2022-08-23T05:40:33.124Z,1003.84
2022-08-23T05:41:33.352Z,1003.90
2022-08-23T05:42:34.081Z,1003.87
2022-08-23T05:43:33.078Z,1003.91
2022-08-23T05:44:36.435Z,1003.86
2022-08-23T05:45:33.058Z,1003.86
2022-08-23T05:46:33.034Z,1003.89
2022-08-23T05:47:33.921Z,1003.85
2022-08-23T05:48:33.012Z,1003.87
2022-08-23T05:49:33.460Z,1003.91
2022-08-23T05:50:38.036Z,1003.88
2022-08-23T05:51:32.982Z,1003.94
2022-08-23T05:52:32.968Z,1003.89
2022-08-23T05:53:32.959Z,1003.90
2022-08-23T05:54:32.951Z,1003.92
2022-08-23T05:55:34.835Z,1003.89
2022-08-23T05:56:32.934Z,1003.86
2022-08-23T05:57:32.912Z,1003.88
2022-08-23T05:58:32.899Z,1003.92
2022-08-23T05:59:32.893Z,1003.99
2022-08-23T06:00:40.397Z,1003.94
2022-08-23T06:01:38.915Z,1003.94
2022-08-23T06:02:32.889Z,1003.99
2022-08-23T06:03:32.846Z,1003.93
2022-08-23T06:04:32.909Z,1004.02
2022-08-23T06:05:32.827Z,1004.00
2022-08-23T06:06:37.271Z,1004.04
2022-08-23T06:07:32.812Z,1004.03
2022-08-23T06:08:32.791Z,1004.06
2022-08-23T06:09:32.783Z,1004.11
2022-08-23T06:10:32.770Z,1004.05
2022-08-23T06:11:32.801Z,1004.11
2022-08-23T06:12:37.765Z,1004.14
2022-08-23T06:13:32.759Z,1004.10
2022-08-23T06:14:32.776Z,1004.13
2022-08-23T06:15:32.714Z,1004.15
2022-08-23T06:16:32.734Z,1004.17
2022-08-23T06:17:32.698Z,1004.16
2022-08-23T06:18:32.690Z,1004.10
2022-08-23T06:19:32.704Z,1004.13
2022-08-23T06:20:32.747Z,1004.07
2022-08-23T06:21:32.658Z,1004.14
2022-08-23T06:22:32.632Z,1004.15
2022-08-23T06:23:37.653Z,1004.16
2022-08-23T06:24:32.626Z,1004.17
2022-08-23T06:25:32.605Z,1004.15
2022-08-23T06:26:32.600Z,1004.15
2022-08-23T06:27:32.707Z,1004.18
2022-08-23T06:28:32.617Z,1004.16
2022-08-23T06:29:32.566Z,1004.15
2022-08-23T06:30:34.481Z,1004.24
2022-08-23T06:31:32.550Z,1004.19
2022-08-23T06:32:32.597Z,1004.27
2022-08-23T06:33:32.557Z,1004.23
2022-08-23T06:34:37.521Z,1004.31
2022-08-23T06:35:37.865Z,1004.21
2022-08-23T06:36:33.487Z,1004.24
2022-08-23T06:37:32.469Z,1004.20
2022-08-23T06:38:32.517Z,1004.23
2022-08-23T06:39:35.543Z,1004.22
2022-08-23T06:40:33.439Z,1004.28
2022-08-23T06:41:32.456Z,1004.21
2022-08-23T06:42:38.517Z,1004.30
2022-08-23T06:43:33.440Z,1004.28
2022-08-23T06:44:32.396Z,1004.28
2022-08-23T06:45:37.403Z,1004.30
2022-08-23T06:46:32.429Z,1004.23
2022-08-23T06:47:32.360Z,1004.32
2022-08-23T06:48:32.364Z,1004.31
2022-08-23T06:49:32.348Z,1004.28
2022-08-23T06:50:32.621Z,1004.35
2022-08-23T06:51:32.360Z,1004.35
2022-08-23T06:52:32.303Z,1004.24
2022-08-23T06:53:32.318Z,1004.23
2022-08-23T06:54:32.289Z,1004.31
2022-08-23T06:55:32.290Z,1004.31
2022-08-23T06:56:37.291Z,1004.38
2022-08-23T06:57:32.259Z,1004.31
2022-08-23T06:58:32.274Z,1004.33
2022-08-23T06:59:32.650Z,1004.33
2022-08-23T07:00:32.282Z,1004.30
2022-08-23T07:01:47.847Z,1004.29
2022-08-23T07:02:33.275Z,1004.31
2022-08-23T07:03:32.287Z,1004.36
2022-08-23T07:04:32.223Z,1004.37
2022-08-23T07:05:32.174Z,1004.38
2022-08-23T07:06:32.320Z,1004.31
2022-08-23T07:07:37.642Z,1004.31
2022-08-23T07:08:33.318Z,1004.38
2022-08-23T07:09:32.116Z,1004.34
2022-08-23T07:10:32.111Z,1004.37
2022-08-23T07:11:32.120Z,1004.35
2022-08-23T07:12:32.079Z,1004.41
2022-08-23T07:13:32.079Z,1004.32
2022-08-23T07:14:32.059Z,1004.30
2022-08-23T07:15:32.047Z,1004.30
2022-08-23T07:16:32.135Z,1004.44
2022-08-23T07:17:32.026Z,1004.41
2022-08-23T07:18:37.034Z,1004.43
2022-08-23T07:19:32.009Z,1004.46
2022-08-23T07:20:32.001Z,1004.42
2022-08-23T07:21:31.987Z,1004.41
2022-08-23T07:22:31.993Z,1004.42
2022-08-23T07:23:31.969Z,1004.42
2022-08-23T07:24:33.636Z,1004.51
2022-08-23T07:25:31.952Z,1004.45
2022-08-23T07:26:31.926Z,1004.46
2022-08-23T07:27:31.979Z,1004.42
2022-08-23T07:28:31.904Z,1004.37
2022-08-23T07:29:36.930Z,1004.38
2022-08-23T07:30:31.885Z,1004.49
2022-08-23T07:31:31.989Z,1004.44
2022-08-23T07:32:31.856Z,1004.40
2022-08-23T07:33:31.855Z,1004.46
2022-08-23T07:34:31.831Z,1004.48
2022-08-23T07:35:34.613Z,1004.47
2022-08-23T07:36:32.833Z,1004.46
2022-08-23T07:37:31.805Z,1004.42
2022-08-23T07:38:31.788Z,1004.46
2022-08-23T07:39:31.858Z,1004.47
2022-08-23T07:40:38.998Z,1004.51
2022-08-23T07:41:32.810Z,1004.49
2022-08-23T07:42:31.741Z,1004.41
2022-08-23T07:43:31.736Z,1004.44
2022-08-23T07:44:31.723Z,1004.43
2022-08-23T07:45:31.714Z,1004.46
2022-08-23T07:46:31.763Z,1004.44
2022-08-23T07:47:31.688Z,1004.45
2022-08-23T07:48:52.425Z,1004.46
2022-08-23T07:49:32.669Z,1004.35
2022-08-23T07:50:31.660Z,1004.40
2022-08-23T07:51:36.686Z,1004.51
2022-08-23T07:52:31.636Z,1004.43
2022-08-23T07:53:37.899Z,1004.39
2022-08-23T07:54:32.630Z,1004.42
2022-08-23T07:55:31.599Z,1004.42
2022-08-23T07:56:31.593Z,1004.46
2022-08-23T07:57:31.610Z,1004.49
2022-08-23T07:58:31.568Z,1004.48
2022-08-23T07:59:34.672Z,1004.54
2022-08-23T08:00:31.547Z,1004.51
2022-08-23T08:01:31.606Z,1004.45
2022-08-23T08:02:36.620Z,1004.54
2022-08-23T08:03:31.520Z,1004.51
2022-08-23T08:04:31.495Z,1004.55
2022-08-23T08:05:31.496Z,1004.56
2022-08-23T08:06:31.474Z,1004.60
2022-08-23T08:07:31.501Z,1004.50
2022-08-23T08:08:31.522Z,1004.60
2022-08-23T08:09:31.443Z,1004.61
2022-08-23T08:10:31.457Z,1004.58
2022-08-23T08:11:34.737Z,1004.55
2022-08-23T08:12:31.418Z,1004.59
2022-08-23T08:13:36.425Z,1004.60
2022-08-23T08:14:31.388Z,1004.62
2022-08-23T08:15:31.379Z,1004.61
2022-08-23T08:16:31.476Z,1004.62
2022-08-23T08:17:31.370Z,1004.65
2022-08-23T08:18:31.344Z,1004.68
2022-08-23T08:19:31.343Z,1004.67
2022-08-23T08:20:31.320Z,1004.64
2022-08-23T08:21:31.315Z,1004.59
2022-08-23T08:22:31.309Z,1004.63
2022-08-23T08:23:31.293Z,1004.69
2022-08-23T08:24:36.302Z,1004.65
2022-08-23T08:25:31.322Z,1004.67
2022-08-23T08:26:31.258Z,1004.70
2022-08-23T08:27:31.256Z,1004.71
2022-08-23T08:28:31.235Z,1004.74
2022-08-23T08:29:31.250Z,1004.61
2022-08-23T08:30:31.215Z,1004.71
2022-08-23T08:31:31.306Z,1004.84
2022-08-23T08:32:31.201Z,1004.76
2022-08-23T08:33:31.182Z,1004.74
2022-08-23T08:34:31.177Z,1004.75
2022-08-23T08:35:36.187Z,1004.82
2022-08-23T08:36:31.155Z,1004.77
2022-08-23T08:37:31.155Z,1004.79
2022-08-23T08:38:31.134Z,1004.79
2022-08-23T08:39:31.113Z,1004.79
2022-08-23T08:40:31.107Z,1004.79
2022-08-23T08:41:31.092Z,1004.78
2022-08-23T08:42:31.094Z,1004.81
2022-08-23T08:43:31.070Z,1004.84
2022-08-23T08:44:31.060Z,1004.83
2022-08-23T08:45:31.143Z,1004.81
2022-08-23T08:46:36.143Z,1004.86
2022-08-23T08:47:31.055Z,1004.79
2022-08-23T08:48:31.019Z,1004.81
2022-08-23T08:49:31.971Z,1004.86
2022-08-23T08:50:30.995Z,1004.85
2022-08-23T08:51:30.983Z,1004.76
2022-08-23T08:52:32.223Z,1004.85
2022-08-23T08:53:30.967Z,1004.84
2022-08-23T08:54:30.951Z,1004.85
2022-08-23T08:55:30.944Z,1004.81
2022-08-23T08:56:32.159Z,1004.80
2022-08-23T08:57:35.954Z,1004.81
2022-08-23T08:58:30.916Z,1004.86
2022-08-23T08:59:30.892Z,1004.87
2022-08-23T09:00:30.896Z,1004.80
2022-08-23T09:01:30.893Z,1004.80
2022-08-23T09:02:32.624Z,1004.83
2022-08-23T09:03:30.929Z,1004.84
2022-08-23T09:04:30.874Z,1004.76
2022-08-23T09:05:30.827Z,1004.84
2022-08-23T09:06:30.836Z,1004.78
2022-08-23T09:07:31.449Z,1004.82
2022-08-23T09:08:35.836Z,1004.85
2022-08-23T09:09:30.823Z,1004.81
2022-08-23T09:10:30.784Z,1004.82
2022-08-23T09:11:30.770Z,1004.87
2022-08-23T09:12:30.763Z,1004.83
2022-08-23T09:13:30.739Z,1004.83
2022-08-23T09:14:31.756Z,1004.89
2022-08-23T09:15:30.723Z,1004.88
2022-08-23T09:16:30.713Z,1004.85
2022-08-23T09:17:30.713Z,1004.89
2022-08-23T09:18:30.688Z,1004.88
2022-08-23T09:19:35.696Z,1004.92
2022-08-23T09:20:33.101Z,1004.85
2022-08-23T09:21:30.656Z,1004.94
2022-08-23T09:22:30.644Z,1004.90
2022-08-23T09:23:30.644Z,1004.89
2022-08-23T09:24:30.627Z,1004.88
2022-08-23T09:25:30.611Z,1004.81
2022-08-23T09:26:30.605Z,1004.87
2022-08-23T09:27:32.698Z,1004.79
2022-08-23T09:28:30.592Z,1004.84
2022-08-23T09:29:30.569Z,1004.83
2022-08-23T09:30:35.583Z,1004.89
2022-08-23T09:31:34.148Z,1004.89
2022-08-23T09:32:31.541Z,1004.88
2022-08-23T09:33:30.538Z,1004.94
2022-08-23T09:34:30.529Z,1004.83
2022-08-23T09:35:30.501Z,1004.83
2022-08-23T09:36:30.498Z,1004.87
2022-08-23T09:37:30.481Z,1004.81
2022-08-23T09:38:30.486Z,1004.82
2022-08-23T09:39:31.207Z,1004.85
2022-08-23T09:40:30.451Z,1004.78
2022-08-23T09:41:35.467Z,1004.86
2022-08-23T09:42:30.437Z,1004.78
2022-08-23T09:43:30.440Z,1004.84
2022-08-23T09:44:30.414Z,1004.83
2022-08-23T09:45:35.105Z,1004.80
2022-08-23T09:46:31.475Z,1004.84
2022-08-23T09:47:30.375Z,1004.81
2022-08-23T09:48:31.232Z,1004.77
2022-08-23T09:49:30.364Z,1004.79
2022-08-23T09:50:30.359Z,1004.81
2022-08-23T09:51:30.336Z,1004.82
2022-08-23T09:52:35.350Z,1004.81
2022-08-23T09:53:30.326Z,1004.75
2022-08-23T09:54:30.310Z,1004.80
2022-08-23T09:55:30.285Z,1004.74
2022-08-23T09:56:30.278Z,1004.80
2022-08-23T09:57:30.267Z,1004.80
2022-08-23T09:58:30.275Z,1004.78
2022-08-23T09:59:30.247Z,1004.65
2022-08-23T10:00:30.232Z,1004.69
2022-08-23T10:01:30.327Z,1004.82
2022-08-23T10:02:30.211Z,1004.73
2022-08-23T10:03:35.239Z,1004.66
2022-08-23T10:04:30.207Z,1004.69
2022-08-23T10:05:30.176Z,1004.69
2022-08-23T10:06:31.056Z,1004.63
2022-08-23T10:07:30.153Z,1004.67
2022-08-23T10:08:30.151Z,1004.75
2022-08-23T10:09:30.140Z,1004.73
2022-08-23T10:10:30.122Z,1004.71
2022-08-23T10:11:30.114Z,1004.70
2022-08-23T10:12:30.100Z,1004.60
2022-08-23T10:13:30.092Z,1004.64
2022-08-23T10:14:35.145Z,1004.62
2022-08-23T10:15:33.097Z,1004.59
2022-08-23T10:16:31.098Z,1004.64
2022-08-23T10:17:30.044Z,1004.60
2022-08-23T10:18:30.054Z,1004.56
2022-08-23T10:19:30.033Z,1004.55
2022-08-23T10:20:30.038Z,1004.46
2022-08-23T10:21:30.009Z,1004.51
2022-08-23T10:22:29.994Z,1004.64
2022-08-23T10:23:29.990Z,1004.49
2022-08-23T10:24:29.995Z,1004.51
2022-08-23T10:25:34.982Z,1004.59
2022-08-23T10:26:29.946Z,1004.62
2022-08-23T10:27:29.934Z,1004.54
2022-08-23T10:28:29.934Z,1004.50
2022-08-23T10:29:30.923Z,1004.54
2022-08-23T10:30:29.901Z,1004.51
2022-08-23T10:31:29.912Z,1004.51
2022-08-23T10:32:29.880Z,1004.44
2022-08-23T10:33:29.875Z,1004.44
2022-08-23T10:34:30.117Z,1004.47
2022-08-23T10:35:29.849Z,1004.43
2022-08-23T10:36:34.869Z,1004.43
2022-08-23T10:37:29.824Z,1004.44
2022-08-23T10:38:29.815Z,1004.36
2022-08-23T10:39:29.824Z,1004.46
2022-08-23T10:40:29.830Z,1004.45
2022-08-23T10:41:29.816Z,1004.43
2022-08-23T10:42:29.782Z,1004.44
2022-08-23T10:43:29.765Z,1004.44
2022-08-23T10:44:29.767Z,1004.45
2022-08-23T10:45:29.743Z,1004.44
2022-08-23T10:46:29.791Z,1004.41
2022-08-23T10:47:34.739Z,1004.42
2022-08-23T10:48:29.706Z,1004.42
2022-08-23T10:49:29.730Z,1004.53
2022-08-23T10:50:29.703Z,1004.52
2022-08-23T10:51:31.322Z,1004.49
2022-08-23T10:52:29.663Z,1004.47
2022-08-23T10:53:29.652Z,1004.50
2022-08-23T10:54:29.655Z,1004.47
2022-08-23T10:55:29.635Z,1004.37
2022-08-23T10:56:29.627Z,1004.41
2022-08-23T10:57:29.608Z,1004.34
2022-08-23T10:58:34.620Z,1004.33
2022-08-23T10:59:29.605Z,1004.31
2022-08-23T11:00:29.584Z,1004.35
2022-08-23T11:01:29.626Z,1004.37
2022-08-23T11:02:29.616Z,1004.29
2022-08-23T11:03:29.543Z,1004.29
2022-08-23T11:04:29.543Z,1004.39
2022-08-23T11:05:29.525Z,1004.31
2022-08-23T11:06:29.513Z,1004.28
2022-08-23T11:07:29.504Z,1004.34
2022-08-23T11:08:29.519Z,1004.29
2022-08-23T11:09:34.512Z,1004.26
2022-08-23T11:10:29.491Z,1004.29
2022-08-23T11:11:29.480Z,1004.29
2022-08-23T11:12:29.448Z,1004.29
2022-08-23T11:13:29.456Z,1004.22
2022-08-23T11:14:29.511Z,1004.17
2022-08-23T11:15:29.437Z,1004.22
2022-08-23T11:16:29.406Z,1004.24
2022-08-23T11:17:29.392Z,1004.20
2022-08-23T11:18:33.148Z,1004.22
2022-08-23T11:19:29.383Z,1004.19
2022-08-23T11:20:29.362Z,1004.23
2022-08-23T11:21:29.349Z,1004.18
2022-08-23T11:22:34.374Z,1004.23
2022-08-23T11:23:29.351Z,1004.20
2022-08-23T11:24:29.350Z,1004.10
2022-08-23T11:25:29.316Z,1004.15
2022-08-23T11:26:29.296Z,1004.15
2022-08-23T11:27:29.285Z,1004.12
2022-08-23T11:28:30.438Z,1004.13
2022-08-23T11:29:29.273Z,1004.19
2022-08-23T11:30:29.262Z,1004.13
2022-08-23T11:31:29.241Z,1004.11
2022-08-23T11:32:30.074Z,1004.13
2022-08-23T11:33:29.219Z,1004.13
2022-08-23T11:34:29.680Z,1004.19
2022-08-23T11:35:34.238Z,1004.05
2022-08-23T11:36:29.214Z,1004.12
2022-08-23T11:37:29.201Z,1004.10
2022-08-23T11:38:29.178Z,1004.10
2022-08-23T11:39:29.155Z,1004.11
2022-08-23T11:40:29.179Z,1004.08
2022-08-23T11:41:30.127Z,1004.14
2022-08-23T11:42:29.124Z,1004.02
2022-08-23T11:43:29.119Z,1004.03
2022-08-23T11:44:29.105Z,1004.10
2022-08-23T11:45:29.115Z,1004.06
2022-08-23T11:46:29.191Z,1004.04
2022-08-23T11:47:29.069Z,1004.06
2022-08-23T11:48:34.093Z,1004.05
2022-08-23T11:49:29.070Z,1004.03
2022-08-23T11:50:29.074Z,1004.06
2022-08-23T11:51:29.051Z,1004.02
2022-08-23T11:52:29.017Z,1004.08
2022-08-23T11:53:29.007Z,1004.04
2022-08-23T11:54:28.996Z,1004.03
2022-08-23T11:55:28.995Z,1004.01
2022-08-23T11:56:28.975Z,1003.98
2022-08-23T11:57:28.967Z,1003.94
2022-08-23T11:58:29.699Z,1003.96
2022-08-23T11:59:28.940Z,1004.01
2022-08-23T12:00:29.737Z,1004.03
2022-08-23T12:01:33.939Z,1003.99
2022-08-23T12:02:29.049Z,1004.16
2022-08-23T12:03:29.067Z,1004.11
2022-08-23T12:04:28.901Z,1004.27
2022-08-23T12:05:28.885Z,1004.25
2022-08-23T12:06:28.870Z,1004.22
2022-08-23T12:07:28.855Z,1004.27
2022-08-23T12:08:28.861Z,1004.14
2022-08-23T12:09:28.848Z,1004.24
2022-08-23T12:10:28.848Z,1004.22
2022-08-23T12:11:28.814Z,1004.21
2022-08-23T12:12:28.803Z,1004.29
2022-08-23T12:13:28.791Z,1004.25
2022-08-23T12:14:34.008Z,1004.27
2022-08-23T12:15:28.869Z,1004.30
2022-08-23T12:16:29.064Z,1004.28
2022-08-23T12:17:29.757Z,1004.18
2022-08-23T12:18:29.746Z,1004.25
2022-08-23T12:19:28.736Z,1004.23
2022-08-23T12:20:28.734Z,1004.16
2022-08-23T12:21:28.710Z,1004.24
2022-08-23T12:22:28.742Z,1004.20
2022-08-23T12:23:28.707Z,1004.22
2022-08-23T12:24:28.678Z,1004.18
2022-08-23T12:25:28.695Z,1004.22
2022-08-23T12:26:28.668Z,1004.21
2022-08-23T12:27:33.673Z,1004.22
2022-08-23T12:28:28.642Z,1004.25
2022-08-23T12:29:28.631Z,1004.21
2022-08-23T12:30:28.629Z,1004.24
2022-08-23T12:31:28.722Z,1004.16
2022-08-23T12:32:30.394Z,1004.18
2022-08-23T12:33:28.593Z,1004.14
2022-08-23T12:34:28.600Z,1004.09
2022-08-23T12:35:28.580Z,1004.05
2022-08-23T12:36:28.560Z,1004.08
2022-08-23T12:37:28.557Z,1004.02
2022-08-23T12:38:33.564Z,1003.97
2022-08-23T12:39:28.534Z,1004.07
2022-08-23T12:40:28.530Z,1004.08
2022-08-23T12:41:28.508Z,1004.05
2022-08-23T12:42:28.503Z,1003.97
2022-08-23T12:43:28.503Z,1003.99
2022-08-23T12:44:28.483Z,1003.86
2022-08-23T12:45:28.552Z,1003.78
2022-08-23T12:46:28.521Z,1003.83
2022-08-23T12:47:28.458Z,1003.72
2022-08-23T12:48:28.439Z,1003.77
2022-08-23T12:49:33.456Z,1003.82
2022-08-23T12:50:32.718Z,1003.77
2022-08-23T12:51:28.452Z,1003.82
2022-08-23T12:52:28.399Z,1003.76
2022-08-23T12:53:28.388Z,1003.78
2022-08-23T12:54:28.383Z,1003.76
2022-08-23T12:55:28.379Z,1003.77
2022-08-23T12:56:31.653Z,1003.80
2022-08-23T12:57:28.348Z,1003.75
2022-08-23T12:58:31.645Z,1003.74
2022-08-23T12:59:28.329Z,1003.66
2022-08-23T13:00:33.949Z,1003.66
2022-08-23T13:01:30.015Z,1003.67
2022-08-23T13:02:28.346Z,1003.71
2022-08-23T13:03:28.317Z,1003.67
2022-08-23T13:04:28.289Z,1003.71
2022-08-23T13:05:28.299Z,1003.68
2022-08-23T13:06:28.264Z,1003.61
2022-08-23T13:07:28.257Z,1003.63
2022-08-23T13:08:34.703Z,1003.57
2022-08-23T13:09:29.360Z,1003.64
2022-08-23T13:10:28.230Z,1003.62
2022-08-23T13:11:33.225Z,1003.65
2022-08-23T13:12:28.215Z,1003.60
2022-08-23T13:13:28.211Z,1003.54
2022-08-23T13:14:31.141Z,1003.60
2022-08-23T13:15:28.201Z,1003.69
2022-08-23T13:16:28.292Z,1003.60
2022-08-23T13:17:28.140Z,1003.59
2022-08-23T13:18:28.135Z,1003.54
2022-08-23T13:19:28.125Z,1003.58
2022-08-23T13:20:28.131Z,1003.56
2022-08-23T13:21:28.108Z,1003.58
2022-08-23T13:22:28.089Z,1003.56
2022-08-23T13:23:28.079Z,1003.63
2022-08-23T13:24:37.720Z,1003.60
2022-08-23T13:25:32.006Z,1003.54
2022-08-23T13:26:28.070Z,1003.58
2022-08-23T13:27:28.859Z,1003.57
2022-08-23T13:28:29.024Z,1003.61
2022-08-23T13:29:28.030Z,1003.51
2022-08-23T13:30:28.040Z,1003.53
2022-08-23T13:31:28.024Z,1003.52
2022-08-23T13:32:27.981Z,1003.53
2022-08-23T13:33:27.972Z,1003.48
2022-08-23T13:34:27.960Z,1003.51
2022-08-23T13:35:27.967Z,1003.48
2022-08-23T13:36:27.940Z,1003.44
2022-08-23T13:37:32.970Z,1003.47
2022-08-23T13:38:27.946Z,1003.43
2022-08-23T13:39:27.940Z,1003.39
2022-08-23T13:40:27.956Z,1003.42
2022-08-23T13:41:27.886Z,1003.39
2022-08-23T13:42:27.901Z,1003.37
2022-08-23T13:43:27.866Z,1003.37
2022-08-23T13:44:27.856Z,1003.37
2022-08-23T13:45:27.842Z,1003.35
2022-08-23T13:46:27.962Z,1003.31
2022-08-23T13:47:27.874Z,1003.34
2022-08-23T13:48:27.810Z,1003.32
2022-08-23T13:49:27.801Z,1003.37
2022-08-23T13:50:32.829Z,1003.40
2022-08-23T13:51:27.812Z,1003.34
2022-08-23T13:52:50.890Z,1003.40
2022-08-23T13:53:28.756Z,1003.31
2022-08-23T13:54:27.754Z,1003.33
2022-08-23T13:55:27.738Z,1003.32
2022-08-23T13:56:27.737Z,1003.35
2022-08-23T13:57:30.161Z,1003.28
2022-08-23T13:58:27.702Z,1003.33
2022-08-23T13:59:31.781Z,1003.32
2022-08-23T14:00:27.701Z,1003.29
2022-08-23T14:01:27.736Z,1003.38
2022-08-23T14:02:27.662Z,1003.24
2022-08-23T14:03:32.674Z,1003.36
2022-08-23T14:04:27.661Z,1003.29
2022-08-23T14:05:27.672Z,1003.25
2022-08-23T14:06:28.725Z,1003.28
2022-08-23T14:07:27.607Z,1003.33
2022-08-23T14:08:27.597Z,1003.27
2022-08-23T14:09:27.586Z,1003.31
2022-08-23T14:10:27.576Z,1003.26
2022-08-23T14:11:27.588Z,1003.28
2022-08-23T14:12:27.896Z,1003.25
2022-08-23T14:13:27.547Z,1003.33
2022-08-23T14:14:27.533Z,1003.29
2022-08-23T14:16:34.164Z,1003.30
2022-08-23T14:17:27.548Z,1003.31
2022-08-23T14:18:27.537Z,1003.27
2022-08-23T14:20:33.432Z,1003.29
2022-08-23T14:21:28.482Z,1003.27
2022-08-23T14:22:27.448Z,1003.21
2022-08-23T14:23:27.436Z,1003.23
2022-08-23T14:24:27.427Z,1003.20
2022-08-23T14:25:27.418Z,1003.22
2022-08-23T14:26:27.417Z,1003.17
2022-08-23T14:27:27.397Z,1003.25
2022-08-23T14:28:27.384Z,1003.18
2022-08-23T14:29:32.398Z,1003.24
2022-08-23T14:30:29.291Z,1003.17
2022-08-23T14:31:27.399Z,1003.18
2022-08-23T14:32:27.337Z,1003.16
2022-08-23T14:33:27.347Z,1003.24
2022-08-23T14:34:27.319Z,1003.18
2022-08-23T14:35:27.308Z,1003.17
2022-08-23T14:36:30.002Z,1003.19
2022-08-23T14:38:28.274Z,1003.20
2022-08-23T14:39:27.294Z,1003.21
2022-08-23T14:40:27.323Z,1003.21
2022-08-23T14:41:27.246Z,1003.23
2022-08-23T14:42:32.329Z,1003.24
2022-08-23T14:43:27.243Z,1003.23
2022-08-23T14:44:33.122Z,1003.21
2022-08-23T14:45:28.200Z,1003.25
2022-08-23T14:46:27.278Z,1003.22
2022-08-23T14:47:27.197Z,1003.23
2022-08-23T14:48:27.172Z,1003.20
2022-08-23T14:49:27.185Z,1003.22
2022-08-23T14:50:28.243Z,1003.22
2022-08-23T14:51:27.138Z,1003.21
2022-08-23T14:52:27.136Z,1003.21
2022-08-23T14:53:27.119Z,1003.20
2022-08-23T14:54:27.104Z,1003.21
2022-08-23T14:55:32.117Z,1003.22
2022-08-23T14:56:27.104Z,1003.22
2022-08-23T14:57:27.110Z,1003.21
2022-08-23T14:58:27.058Z,1003.22
2022-08-23T14:59:27.056Z,1003.19
2022-08-23T15:00:27.041Z,1003.22
2022-08-23T15:01:27.086Z,1003.23
2022-08-23T15:02:27.030Z,1003.17
2022-08-23T15:03:27.055Z,1003.18
2022-08-23T15:04:32.375Z,1003.17
2022-08-23T15:05:27.989Z,1003.20
2022-08-23T15:06:26.975Z,1003.23
2022-08-23T15:07:26.980Z,1003.16
2022-08-23T15:08:31.977Z,1003.15
2022-08-23T15:09:26.964Z,1003.16
2022-08-23T15:13:33.844Z,1003.15
2022-08-23T15:14:27.888Z,1003.25
2022-08-23T15:15:26.887Z,1003.21
2022-08-23T15:16:26.922Z,1003.15
2022-08-23T15:17:31.315Z,1003.15
2022-08-23T15:18:26.857Z,1003.18
2022-08-23T15:19:26.852Z,1003.12
2022-08-23T15:20:26.824Z,1003.17
2022-08-23T15:21:31.839Z,1003.09
2022-08-23T15:22:26.844Z,1003.14
2022-08-23T15:23:26.818Z,1003.13
2022-08-23T15:24:26.783Z,1003.12
2022-08-23T15:25:26.773Z,1003.13
2022-08-23T15:26:26.760Z,1003.08
2022-08-23T15:27:26.764Z,1003.09
2022-08-23T15:28:26.741Z,1003.07
2022-08-23T15:29:26.731Z,1003.05
2022-08-23T15:30:26.828Z,1003.07
2022-08-23T15:31:26.704Z,1003.07
2022-08-23T15:32:26.708Z,1003.10
2022-08-23T15:33:30.822Z,1003.10
2022-08-23T15:34:33.313Z,1003.05
2022-08-23T15:35:26.694Z,1003.09
2022-08-23T15:36:26.702Z,1003.07
2022-08-23T15:37:26.654Z,1003.13
2022-08-23T15:38:26.639Z,1003.04
2022-08-23T15:39:26.625Z,1003.07
2022-08-23T15:40:26.669Z,1003.05
2022-08-23T15:41:26.596Z,1003.07
2022-08-23T15:42:26.602Z,1003.02
2022-08-23T15:43:34.017Z,1003.05
2022-08-23T15:44:27.571Z,1003.07
2022-08-23T15:45:26.554Z,1003.08
2022-08-23T15:46:26.642Z,1002.98
2022-08-23T15:47:31.568Z,1003.06
2022-08-23T15:48:26.556Z,1003.03
2022-08-23T15:49:26.535Z,1002.97
2022-08-23T15:50:26.503Z,1003.03
2022-08-23T15:51:26.497Z,1003.07
2022-08-23T15:52:26.510Z,1003.01
2022-08-23T15:53:26.469Z,1003.00
2022-08-23T15:54:26.470Z,1003.04
2022-08-23T15:55:26.452Z,1003.00
2022-08-23T15:56:26.444Z,1002.97
2022-08-23T15:57:27.939Z,1002.94
2022-08-23T15:58:26.423Z,1002.97
2022-08-23T15:59:26.413Z,1003.00
2022-08-23T16:00:31.956Z,1003.02
2022-08-23T16:01:26.461Z,1002.96
2022-08-23T16:02:26.441Z,1002.98
2022-08-23T16:03:26.475Z,1002.93
2022-08-23T16:04:26.351Z,1002.99
2022-08-23T16:05:27.342Z,1002.97
2022-08-23T16:06:26.336Z,1002.94
2022-08-23T16:07:26.335Z,1002.91
2022-08-23T16:08:26.324Z,1002.96
2022-08-23T16:09:26.339Z,1002.93
2022-08-23T16:10:28.099Z,1003.00
2022-08-23T16:11:26.276Z,1002.95